sensor_id;sensor_type;location;lat;lon;timestamp;P1;durP1;ratioP1;P2;durP2;ratioP2
71253;SDS011;59019;47.638;18.966;2023-05-07T00:01:53;7.65;;;3.88;;
71253;SDS011;59019;47.638;18.966;2023-05-07T00:04:19;7.83;;;4.30;;
71253;SDS011;59019;47.638;18.966;2023-05-07T00:06:45;8.68;;;5.03;;
71253;SDS011;59019;47.638;18.966;2023-05-07T00:09:11;9.33;;;4.70;;
71253;SDS011;59019;47.638;18.966;2023-05-07T00:11:36;7.97;;;4.28;;
71253;SDS011;59019;47.638;18.966;2023-05-07T00:14:02;6.60;;;3.92;;
71253;SDS011;59019;47.638;18.966;2023-05-07T00:16:27;6.70;;;4.10;;
71253;SDS011;59019;47.638;18.966;2023-05-07T00:18:53;8.63;;;4.50;;
71253;SDS011;59019;47.638;18.966;2023-05-07T00:21:18;9.70;;;4.50;;
71253;SDS011;59019;47.638;18.966;2023-05-07T00:23:44;9.90;;;4.33;;
71253;SDS011;59019;47.638;18.966;2023-05-07T00:26:09;8.50;;;4.80;;
71253;SDS011;59019;47.638;18.966;2023-05-07T00:28:35;7.38;;;4.47;;
71253;SDS011;59019;47.638;18.966;2023-05-07T00:31:01;6.93;;;4.47;;
71253;SDS011;59019;47.638;18.966;2023-05-07T00:33:26;6.60;;;4.07;;
71253;SDS011;59019;47.638;18.966;2023-05-07T00:35:52;9.02;;;5.10;;
71253;SDS011;59019;47.638;18.966;2023-05-07T00:38:19;9.25;;;4.18;;
71253;SDS011;59019;47.638;18.966;2023-05-07T00:40:45;9.60;;;4.40;;
71253;SDS011;59019;47.638;18.966;2023-05-07T00:43:10;6.90;;;4.60;;
71253;SDS011;59019;47.638;18.966;2023-05-07T00:45:38;8.82;;;4.50;;
71253;SDS011;59019;47.638;18.966;2023-05-07T00:48:03;7.68;;;4.30;;
71253;SDS011;59019;47.638;18.966;2023-05-07T00:50:30;7.20;;;4.68;;
71253;SDS011;59019;47.638;18.966;2023-05-07T00:52:56;6.90;;;3.97;;
71253;SDS011;59019;47.638;18.966;2023-05-07T00:55:22;8.52;;;4.38;;
71253;SDS011;59019;47.638;18.966;2023-05-07T00:57:48;8.45;;;4.18;;
71253;SDS011;59019;47.638;18.966;2023-05-07T01:00:15;7.97;;;4.13;;
71253;SDS011;59019;47.638;18.966;2023-05-07T01:02:41;8.77;;;4.25;;
71253;SDS011;59019;47.638;18.966;2023-05-07T01:05:07;7.38;;;4.40;;
71253;SDS011;59019;47.638;18.966;2023-05-07T01:07:37;7.63;;;4.25;;
71253;SDS011;59019;47.638;18.966;2023-05-07T01:10:05;6.87;;;4.10;;
71253;SDS011;59019;47.638;18.966;2023-05-07T01:12:32;7.40;;;4.10;;
71253;SDS011;59019;47.638;18.966;2023-05-07T01:14:58;7.50;;;4.32;;
71253;SDS011;59019;47.638;18.966;2023-05-07T01:17:23;6.80;;;4.10;;
71253;SDS011;59019;47.638;18.966;2023-05-07T01:19:49;8.27;;;4.53;;
71253;SDS011;59019;47.638;18.966;2023-05-07T01:22:18;7.00;;;4.13;;
71253;SDS011;59019;47.638;18.966;2023-05-07T01:24:57;9.18;;;5.38;;
71253;SDS011;59019;47.638;18.966;2023-05-07T01:27:24;7.30;;;4.32;;
71253;SDS011;59019;47.638;18.966;2023-05-07T01:29:50;9.93;;;5.68;;
71253;SDS011;59019;47.638;18.966;2023-05-07T01:32:16;9.80;;;5.97;;
71253;SDS011;59019;47.638;18.966;2023-05-07T01:34:46;11.75;;;6.20;;
71253;SDS011;59019;47.638;18.966;2023-05-07T01:37:15;9.53;;;5.87;;
71253;SDS011;59019;47.638;18.966;2023-05-07T01:39:42;10.57;;;6.15;;
71253;SDS011;59019;47.638;18.966;2023-05-07T01:42:08;11.02;;;6.55;;
71253;SDS011;59019;47.638;18.966;2023-05-07T01:44:34;10.07;;;5.97;;
71253;SDS011;59019;47.638;18.966;2023-05-07T01:46:59;9.10;;;5.57;;
71253;SDS011;59019;47.638;18.966;2023-05-07T01:49:27;8.80;;;5.47;;
71253;SDS011;59019;47.638;18.966;2023-05-07T01:51:53;9.60;;;5.78;;
71253;SDS011;59019;47.638;18.966;2023-05-07T01:54:19;9.40;;;5.30;;
71253;SDS011;59019;47.638;18.966;2023-05-07T01:56:45;8.27;;;5.57;;
71253;SDS011;59019;47.638;18.966;2023-05-07T01:59:13;9.73;;;5.53;;
71253;SDS011;59019;47.638;18.966;2023-05-07T02:01:38;10.20;;;5.00;;
71253;SDS011;59019;47.638;18.966;2023-05-07T02:04:04;9.15;;;4.70;;
71253;SDS011;59019;47.638;18.966;2023-05-07T02:06:29;9.30;;;4.47;;
71253;SDS011;59019;47.638;18.966;2023-05-07T02:08:56;7.90;;;4.93;;
71253;SDS011;59019;47.638;18.966;2023-05-07T02:11:21;9.23;;;4.57;;
71253;SDS011;59019;47.638;18.966;2023-05-07T02:13:47;8.27;;;4.37;;
71253;SDS011;59019;47.638;18.966;2023-05-07T02:16:12;8.83;;;4.40;;
71253;SDS011;59019;47.638;18.966;2023-05-07T02:18:39;7.10;;;4.30;;
71253;SDS011;59019;47.638;18.966;2023-05-07T02:21:05;7.68;;;4.38;;
71253;SDS011;59019;47.638;18.966;2023-05-07T02:23:31;8.77;;;5.40;;
71253;SDS011;59019;47.638;18.966;2023-05-07T02:25:56;10.05;;;5.15;;
71253;SDS011;59019;47.638;18.966;2023-05-07T02:28:22;9.33;;;4.60;;
71253;SDS011;59019;47.638;18.966;2023-05-07T02:30:47;9.03;;;4.60;;
71253;SDS011;59019;47.638;18.966;2023-05-07T02:33:13;7.10;;;4.67;;
71253;SDS011;59019;47.638;18.966;2023-05-07T02:35:39;8.88;;;4.70;;
71253;SDS011;59019;47.638;18.966;2023-05-07T02:38:04;8.93;;;5.20;;
71253;SDS011;59019;47.638;18.966;2023-05-07T02:40:30;7.40;;;4.90;;
71253;SDS011;59019;47.638;18.966;2023-05-07T02:42:58;9.70;;;5.45;;
71253;SDS011;59019;47.638;18.966;2023-05-07T02:45:24;10.13;;;5.77;;
71253;SDS011;59019;47.638;18.966;2023-05-07T02:47:50;9.75;;;5.70;;
71253;SDS011;59019;47.638;18.966;2023-05-07T02:50:15;10.33;;;5.33;;
71253;SDS011;59019;47.638;18.966;2023-05-07T02:52:41;10.23;;;6.73;;
71253;SDS011;59019;47.638;18.966;2023-05-07T02:55:07;11.48;;;6.13;;
71253;SDS011;59019;47.638;18.966;2023-05-07T02:57:33;9.27;;;5.53;;
71253;SDS011;59019;47.638;18.966;2023-05-07T02:59:58;9.97;;;5.57;;
71253;SDS011;59019;47.638;18.966;2023-05-07T03:02:24;7.57;;;4.37;;
71253;SDS011;59019;47.638;18.966;2023-05-07T03:04:49;5.97;;;3.63;;
71253;SDS011;59019;47.638;18.966;2023-05-07T03:07:15;7.73;;;4.10;;
71253;SDS011;59019;47.638;18.966;2023-05-07T03:09:40;8.80;;;4.60;;
71253;SDS011;59019;47.638;18.966;2023-05-07T03:12:06;7.30;;;3.90;;
71253;SDS011;59019;47.638;18.966;2023-05-07T03:14:32;7.05;;;4.28;;
71253;SDS011;59019;47.638;18.966;2023-05-07T03:16:58;6.90;;;4.00;;
71253;SDS011;59019;47.638;18.966;2023-05-07T03:19:23;7.17;;;3.80;;
71253;SDS011;59019;47.638;18.966;2023-05-07T03:21:49;7.78;;;3.95;;
71253;SDS011;59019;47.638;18.966;2023-05-07T03:24:14;7.40;;;4.40;;
71253;SDS011;59019;47.638;18.966;2023-05-07T03:26:40;7.73;;;3.83;;
71253;SDS011;59019;47.638;18.966;2023-05-07T03:29:05;7.90;;;4.10;;
71253;SDS011;59019;47.638;18.966;2023-05-07T03:31:31;7.10;;;4.30;;
71253;SDS011;59019;47.638;18.966;2023-05-07T03:33:57;8.23;;;4.50;;
71253;SDS011;59019;47.638;18.966;2023-05-07T03:36:23;7.50;;;4.15;;
71253;SDS011;59019;47.638;18.966;2023-05-07T03:38:49;7.68;;;4.45;;
71253;SDS011;59019;47.638;18.966;2023-05-07T03:41:15;9.77;;;4.77;;
71253;SDS011;59019;47.638;18.966;2023-05-07T03:43:41;9.52;;;5.05;;
71253;SDS011;59019;47.638;18.966;2023-05-07T03:46:07;8.93;;;4.88;;
71253;SDS011;59019;47.638;18.966;2023-05-07T03:48:34;10.95;;;5.38;;
71253;SDS011;59019;47.638;18.966;2023-05-07T03:50:59;10.90;;;5.50;;
71253;SDS011;59019;47.638;18.966;2023-05-07T03:53:25;7.80;;;4.77;;
71253;SDS011;59019;47.638;18.966;2023-05-07T03:55:50;8.27;;;4.88;;
71253;SDS011;59019;47.638;18.966;2023-05-07T03:58:16;7.97;;;4.47;;
71253;SDS011;59019;47.638;18.966;2023-05-07T04:00:41;10.13;;;4.83;;
71253;SDS011;59019;47.638;18.966;2023-05-07T04:03:07;8.73;;;4.75;;
71253;SDS011;59019;47.638;18.966;2023-05-07T04:05:33;8.43;;;4.90;;
71253;SDS011;59019;47.638;18.966;2023-05-07T04:07:59;7.65;;;4.35;;
71253;SDS011;59019;47.638;18.966;2023-05-07T04:10:25;8.18;;;3.97;;
71253;SDS011;59019;47.638;18.966;2023-05-07T04:12:51;7.20;;;3.80;;
71253;SDS011;59019;47.638;18.966;2023-05-07T04:15:16;7.00;;;3.53;;
71253;SDS011;59019;47.638;18.966;2023-05-07T04:17:42;14.87;;;4.27;;
71253;SDS011;59019;47.638;18.966;2023-05-07T04:20:13;9.13;;;3.42;;
71253;SDS011;59019;47.638;18.966;2023-05-07T04:22:40;6.50;;;3.33;;
71253;SDS011;59019;47.638;18.966;2023-05-07T04:25:06;5.88;;;3.00;;
71253;SDS011;59019;47.638;18.966;2023-05-07T04:27:34;5.88;;;3.28;;
71253;SDS011;59019;47.638;18.966;2023-05-07T04:30:00;6.35;;;3.33;;
71253;SDS011;59019;47.638;18.966;2023-05-07T04:32:26;6.27;;;3.63;;
71253;SDS011;59019;47.638;18.966;2023-05-07T04:34:51;6.45;;;3.22;;
71253;SDS011;59019;47.638;18.966;2023-05-07T04:37:17;11.00;;;4.00;;
71253;SDS011;59019;47.638;18.966;2023-05-07T04:39:42;7.25;;;4.28;;
71253;SDS011;59019;47.638;18.966;2023-05-07T04:42:08;7.25;;;3.30;;
71253;SDS011;59019;47.638;18.966;2023-05-07T04:44:34;5.57;;;3.07;;
71253;SDS011;59019;47.638;18.966;2023-05-07T04:47:00;6.63;;;3.50;;
71253;SDS011;59019;47.638;18.966;2023-05-07T04:49:26;8.15;;;4.20;;
71253;SDS011;59019;47.638;18.966;2023-05-07T04:51:51;8.38;;;4.78;;
71253;SDS011;59019;47.638;18.966;2023-05-07T04:54:17;8.73;;;4.18;;
71253;SDS011;59019;47.638;18.966;2023-05-07T04:56:43;7.57;;;3.95;;
71253;SDS011;59019;47.638;18.966;2023-05-07T04:59:08;9.30;;;4.90;;
71253;SDS011;59019;47.638;18.966;2023-05-07T05:01:34;9.82;;;4.82;;
71253;SDS011;59019;47.638;18.966;2023-05-07T05:03:59;9.85;;;4.25;;
71253;SDS011;59019;47.638;18.966;2023-05-07T05:06:25;7.10;;;4.13;;
71253;SDS011;59019;47.638;18.966;2023-05-07T05:08:51;8.05;;;4.00;;
71253;SDS011;59019;47.638;18.966;2023-05-07T05:11:16;8.67;;;4.43;;
71253;SDS011;59019;47.638;18.966;2023-05-07T05:13:42;6.63;;;4.10;;
71253;SDS011;59019;47.638;18.966;2023-05-07T05:16:08;8.15;;;3.95;;
71253;SDS011;59019;47.638;18.966;2023-05-07T05:18:34;7.43;;;4.20;;
71253;SDS011;59019;47.638;18.966;2023-05-07T05:20:59;7.22;;;3.97;;
71253;SDS011;59019;47.638;18.966;2023-05-07T05:23:25;6.77;;;3.90;;
71253;SDS011;59019;47.638;18.966;2023-05-07T05:25:55;6.82;;;3.55;;
71253;SDS011;59019;47.638;18.966;2023-05-07T05:28:21;5.30;;;3.30;;
71253;SDS011;59019;47.638;18.966;2023-05-07T05:30:46;4.90;;;2.78;;
71253;SDS011;59019;47.638;18.966;2023-05-07T05:33:12;4.20;;;2.30;;
71253;SDS011;59019;47.638;18.966;2023-05-07T05:35:38;4.87;;;2.47;;
71253;SDS011;59019;47.638;18.966;2023-05-07T05:38:03;5.18;;;2.70;;
71253;SDS011;59019;47.638;18.966;2023-05-07T05:40:29;4.83;;;2.47;;
71253;SDS011;59019;47.638;18.966;2023-05-07T05:42:54;4.77;;;2.40;;
71253;SDS011;59019;47.638;18.966;2023-05-07T05:45:20;5.90;;;2.65;;
71253;SDS011;59019;47.638;18.966;2023-05-07T05:47:45;4.33;;;2.30;;
71253;SDS011;59019;47.638;18.966;2023-05-07T05:50:11;4.77;;;2.53;;
71253;SDS011;59019;47.638;18.966;2023-05-07T05:52:36;5.28;;;2.50;;
71253;SDS011;59019;47.638;18.966;2023-05-07T05:55:03;5.72;;;3.30;;
71253;SDS011;59019;47.638;18.966;2023-05-07T05:57:28;7.13;;;3.20;;
71253;SDS011;59019;47.638;18.966;2023-05-07T05:59:54;6.50;;;3.13;;
71253;SDS011;59019;47.638;18.966;2023-05-07T06:02:20;5.82;;;3.08;;
71253;SDS011;59019;47.638;18.966;2023-05-07T06:04:45;5.15;;;3.00;;
71253;SDS011;59019;47.638;18.966;2023-05-07T06:07:11;5.43;;;2.20;;
71253;SDS011;59019;47.638;18.966;2023-05-07T06:09:36;6.03;;;2.45;;
71253;SDS011;59019;47.638;18.966;2023-05-07T06:12:02;4.28;;;2.08;;
71253;SDS011;59019;47.638;18.966;2023-05-07T06:14:27;3.80;;;2.10;;
71253;SDS011;59019;47.638;18.966;2023-05-07T06:16:53;5.10;;;2.50;;
71253;SDS011;59019;47.638;18.966;2023-05-07T06:19:18;4.20;;;2.33;;
71253;SDS011;59019;47.638;18.966;2023-05-07T06:21:48;3.60;;;2.00;;
71253;SDS011;59019;47.638;18.966;2023-05-07T06:24:13;3.80;;;1.90;;
71253;SDS011;59019;47.638;18.966;2023-05-07T06:26:39;3.37;;;1.70;;
71253;SDS011;59019;47.638;18.966;2023-05-07T06:29:05;3.72;;;1.70;;
71253;SDS011;59019;47.638;18.966;2023-05-07T06:31:31;4.35;;;1.55;;
71253;SDS011;59019;47.638;18.966;2023-05-07T06:33:59;4.80;;;1.65;;
71253;SDS011;59019;47.638;18.966;2023-05-07T06:36:27;3.67;;;1.77;;
71253;SDS011;59019;47.638;18.966;2023-05-07T06:38:52;3.30;;;1.50;;
71253;SDS011;59019;47.638;18.966;2023-05-07T06:41:18;4.00;;;1.70;;
71253;SDS011;59019;47.638;18.966;2023-05-07T06:43:43;3.80;;;1.60;;
71253;SDS011;59019;47.638;18.966;2023-05-07T06:46:09;3.40;;;1.67;;
71253;SDS011;59019;47.638;18.966;2023-05-07T06:48:35;4.07;;;2.20;;
71253;SDS011;59019;47.638;18.966;2023-05-07T06:51:00;4.72;;;2.33;;
71253;SDS011;59019;47.638;18.966;2023-05-07T06:53:26;5.03;;;2.40;;
71253;SDS011;59019;47.638;18.966;2023-05-07T06:55:53;5.40;;;3.22;;
71253;SDS011;59019;47.638;18.966;2023-05-07T06:58:19;6.63;;;3.67;;
71253;SDS011;59019;47.638;18.966;2023-05-07T07:00:44;5.68;;;3.65;;
71253;SDS011;59019;47.638;18.966;2023-05-07T07:03:10;5.73;;;3.37;;
71253;SDS011;59019;47.638;18.966;2023-05-07T07:05:36;5.65;;;3.45;;
71253;SDS011;59019;47.638;18.966;2023-05-07T07:08:02;5.80;;;3.00;;
71253;SDS011;59019;47.638;18.966;2023-05-07T07:10:27;5.03;;;3.05;;
71253;SDS011;59019;47.638;18.966;2023-05-07T07:12:53;5.00;;;2.93;;
71253;SDS011;59019;47.638;18.966;2023-05-07T07:15:19;5.90;;;2.90;;
71253;SDS011;59019;47.638;18.966;2023-05-07T07:17:45;5.32;;;2.80;;
71253;SDS011;59019;47.638;18.966;2023-05-07T07:20:11;5.30;;;3.03;;
71253;SDS011;59019;47.638;18.966;2023-05-07T07:22:37;6.30;;;3.30;;
71253;SDS011;59019;47.638;18.966;2023-05-07T07:25:02;5.77;;;3.27;;
71253;SDS011;59019;47.638;18.966;2023-05-07T07:27:28;5.78;;;3.53;;
71253;SDS011;59019;47.638;18.966;2023-05-07T07:29:53;5.83;;;3.23;;
71253;SDS011;59019;47.638;18.966;2023-05-07T07:32:19;4.72;;;2.42;;
71253;SDS011;59019;47.638;18.966;2023-05-07T07:34:44;4.80;;;2.57;;
71253;SDS011;59019;47.638;18.966;2023-05-07T07:37:10;4.37;;;2.53;;
71253;SDS011;59019;47.638;18.966;2023-05-07T07:39:36;5.75;;;2.28;;
71253;SDS011;59019;47.638;18.966;2023-05-07T07:42:02;4.37;;;2.17;;
71253;SDS011;59019;47.638;18.966;2023-05-07T07:44:28;3.63;;;1.77;;
71253;SDS011;59019;47.638;18.966;2023-05-07T07:46:53;3.37;;;1.70;;
71253;SDS011;59019;47.638;18.966;2023-05-07T07:49:19;3.47;;;1.60;;
71253;SDS011;59019;47.638;18.966;2023-05-07T07:51:44;4.47;;;1.70;;
71253;SDS011;59019;47.638;18.966;2023-05-07T07:54:10;4.30;;;2.10;;
71253;SDS011;59019;47.638;18.966;2023-05-07T07:56:36;5.78;;;3.22;;
71253;SDS011;59019;47.638;18.966;2023-05-07T07:59:01;6.53;;;4.10;;
71253;SDS011;59019;47.638;18.966;2023-05-07T08:01:29;7.53;;;4.77;;
71253;SDS011;59019;47.638;18.966;2023-05-07T08:03:55;9.93;;;5.40;;
71253;SDS011;59019;47.638;18.966;2023-05-07T08:06:23;8.73;;;5.47;;
71253;SDS011;59019;47.638;18.966;2023-05-07T08:08:49;11.18;;;5.97;;
71253;SDS011;59019;47.638;18.966;2023-05-07T08:11:14;9.00;;;6.10;;
71253;SDS011;59019;47.638;18.966;2023-05-07T08:13:40;10.37;;;6.03;;
71253;SDS011;59019;47.638;18.966;2023-05-07T08:16:05;11.30;;;6.50;;
71253;SDS011;59019;47.638;18.966;2023-05-07T08:18:31;9.25;;;6.03;;
71253;SDS011;59019;47.638;18.966;2023-05-07T08:20:56;10.33;;;6.60;;
71253;SDS011;59019;47.638;18.966;2023-05-07T08:23:22;10.43;;;7.07;;
71253;SDS011;59019;47.638;18.966;2023-05-07T08:25:48;9.98;;;7.00;;
71253;SDS011;59019;47.638;18.966;2023-05-07T08:28:14;10.23;;;6.70;;
71253;SDS011;59019;47.638;18.966;2023-05-07T08:30:40;12.88;;;7.82;;
71253;SDS011;59019;47.638;18.966;2023-05-07T08:33:06;12.93;;;7.93;;
71253;SDS011;59019;47.638;18.966;2023-05-07T08:35:31;12.77;;;8.90;;
71253;SDS011;59019;47.638;18.966;2023-05-07T08:37:57;14.67;;;9.57;;
71253;SDS011;59019;47.638;18.966;2023-05-07T08:40:23;11.45;;;8.00;;
71253;SDS011;59019;47.638;18.966;2023-05-07T08:42:51;12.30;;;8.55;;
71253;SDS011;59019;47.638;18.966;2023-05-07T08:45:18;12.80;;;7.90;;
71253;SDS011;59019;47.638;18.966;2023-05-07T08:47:46;13.68;;;8.40;;
71253;SDS011;59019;47.638;18.966;2023-05-07T08:50:15;11.18;;;7.82;;
71253;SDS011;59019;47.638;18.966;2023-05-07T08:52:41;11.60;;;7.97;;
71253;SDS011;59019;47.638;18.966;2023-05-07T08:55:07;12.77;;;8.27;;
71253;SDS011;59019;47.638;18.966;2023-05-07T08:57:33;15.65;;;8.55;;
71253;SDS011;59019;47.638;18.966;2023-05-07T08:59:59;13.13;;;9.50;;
71253;SDS011;59019;47.638;18.966;2023-05-07T09:02:24;13.27;;;8.52;;
71253;SDS011;59019;47.638;18.966;2023-05-07T09:04:50;15.48;;;8.55;;
71253;SDS011;59019;47.638;18.966;2023-05-07T09:07:16;14.70;;;8.83;;
71253;SDS011;59019;47.638;18.966;2023-05-07T09:09:42;11.35;;;7.88;;
71253;SDS011;59019;47.638;18.966;2023-05-07T09:12:09;10.57;;;7.80;;
71253;SDS011;59019;47.638;18.966;2023-05-07T09:14:35;11.70;;;7.93;;
71253;SDS011;59019;47.638;18.966;2023-05-07T09:17:00;11.90;;;7.50;;
71253;SDS011;59019;47.638;18.966;2023-05-07T09:19:26;9.93;;;7.30;;
71253;SDS011;59019;47.638;18.966;2023-05-07T09:21:59;11.13;;;7.67;;
71253;SDS011;59019;47.638;18.966;2023-05-07T09:24:26;9.65;;;6.90;;
71253;SDS011;59019;47.638;18.966;2023-05-07T09:26:53;8.73;;;6.22;;
71253;SDS011;59019;47.638;18.966;2023-05-07T09:29:20;9.07;;;6.75;;
71253;SDS011;59019;47.638;18.966;2023-05-07T09:31:47;10.25;;;6.38;;
71253;SDS011;59019;47.638;18.966;2023-05-07T09:34:14;7.53;;;5.45;;
71253;SDS011;59019;47.638;18.966;2023-05-07T09:36:41;7.70;;;5.38;;
71253;SDS011;59019;47.638;18.966;2023-05-07T09:39:07;9.37;;;6.50;;
71253;SDS011;59019;47.638;18.966;2023-05-07T09:41:32;9.20;;;6.20;;
71253;SDS011;59019;47.638;18.966;2023-05-07T09:44:08;6.15;;;3.85;;
71253;SDS011;59019;47.638;18.966;2023-05-07T09:46:34;6.93;;;4.30;;
71253;SDS011;59019;47.638;18.966;2023-05-07T09:49:03;7.55;;;4.50;;
71253;SDS011;59019;47.638;18.966;2023-05-07T09:51:38;8.30;;;4.60;;
71253;SDS011;59019;47.638;18.966;2023-05-07T09:54:08;5.88;;;3.95;;
71253;SDS011;59019;47.638;18.966;2023-05-07T09:56:35;6.45;;;3.90;;
71253;SDS011;59019;47.638;18.966;2023-05-07T09:59:03;5.45;;;3.30;;
71253;SDS011;59019;47.638;18.966;2023-05-07T10:01:29;5.75;;;3.10;;
71253;SDS011;59019;47.638;18.966;2023-05-07T10:03:56;6.23;;;3.60;;
71253;SDS011;59019;47.638;18.966;2023-05-07T10:06:24;7.30;;;3.40;;
71253;SDS011;59019;47.638;18.966;2023-05-07T10:08:51;8.85;;;4.97;;
71253;SDS011;59019;47.638;18.966;2023-05-07T10:11:17;7.18;;;4.90;;
71253;SDS011;59019;47.638;18.966;2023-05-07T10:13:43;6.60;;;4.90;;
71253;SDS011;59019;47.638;18.966;2023-05-07T10:16:09;7.55;;;4.53;;
71253;SDS011;59019;47.638;18.966;2023-05-07T10:18:35;7.07;;;4.43;;
71253;SDS011;59019;47.638;18.966;2023-05-07T10:21:16;6.70;;;4.10;;
71253;SDS011;59019;47.638;18.966;2023-05-07T10:23:51;5.85;;;3.72;;
71253;SDS011;59019;47.638;18.966;2023-05-07T10:26:23;7.33;;;3.97;;
71253;SDS011;59019;47.638;18.966;2023-05-07T10:28:52;5.35;;;3.78;;
71253;SDS011;59019;47.638;18.966;2023-05-07T10:34:08;6.45;;;3.90;;
71253;SDS011;59019;47.638;18.966;2023-05-07T10:36:38;6.07;;;3.67;;
71253;SDS011;59019;47.638;18.966;2023-05-07T10:39:04;5.73;;;3.37;;
71253;SDS011;59019;47.638;18.966;2023-05-07T10:41:31;5.82;;;3.65;;
71253;SDS011;59019;47.638;18.966;2023-05-07T10:43:56;6.65;;;3.67;;
71253;SDS011;59019;47.638;18.966;2023-05-07T10:46:22;5.83;;;4.00;;
71253;SDS011;59019;47.638;18.966;2023-05-07T10:49:09;6.18;;;4.20;;
71253;SDS011;59019;47.638;18.966;2023-05-07T10:51:35;8.03;;;4.60;;
71253;SDS011;59019;47.638;18.966;2023-05-07T10:56:36;7.47;;;4.40;;
71253;SDS011;59019;47.638;18.966;2023-05-07T10:59:30;7.10;;;4.33;;
71253;SDS011;59019;47.638;18.966;2023-05-07T11:01:57;6.53;;;3.70;;
71253;SDS011;59019;47.638;18.966;2023-05-07T11:04:31;5.88;;;3.80;;
71253;SDS011;59019;47.638;18.966;2023-05-07T11:17:31;7.13;;;4.22;;
71253;SDS011;59019;47.638;18.966;2023-05-07T11:20:00;6.17;;;3.97;;
71253;SDS011;59019;47.638;18.966;2023-05-07T11:24:55;5.50;;;3.83;;
71253;SDS011;59019;47.638;18.966;2023-05-07T11:27:28;5.88;;;4.10;;
71253;SDS011;59019;47.638;18.966;2023-05-07T11:29:54;5.88;;;4.13;;
71253;SDS011;59019;47.638;18.966;2023-05-07T11:32:24;4.83;;;3.17;;
71253;SDS011;59019;47.638;18.966;2023-05-07T11:34:59;6.85;;;3.90;;
71253;SDS011;59019;47.638;18.966;2023-05-07T11:37:26;5.00;;;3.55;;
71253;SDS011;59019;47.638;18.966;2023-05-07T11:40:08;5.97;;;3.40;;
71253;SDS011;59019;47.638;18.966;2023-05-07T11:42:39;5.40;;;3.03;;
71253;SDS011;59019;47.638;18.966;2023-05-07T11:45:07;5.90;;;3.77;;
71253;SDS011;59019;47.638;18.966;2023-05-07T11:47:34;5.28;;;3.20;;
71253;SDS011;59019;47.638;18.966;2023-05-07T11:50:04;5.53;;;3.40;;
71253;SDS011;59019;47.638;18.966;2023-05-07T11:52:31;5.40;;;3.42;;
71253;SDS011;59019;47.638;18.966;2023-05-07T11:54:58;5.40;;;3.13;;
71253;SDS011;59019;47.638;18.966;2023-05-07T11:57:25;5.87;;;3.80;;
71253;SDS011;59019;47.638;18.966;2023-05-07T12:02:20;5.88;;;3.58;;
71253;SDS011;59019;47.638;18.966;2023-05-07T12:04:46;5.13;;;3.33;;
71253;SDS011;59019;47.638;18.966;2023-05-07T12:07:14;5.00;;;3.05;;
71253;SDS011;59019;47.638;18.966;2023-05-07T12:09:40;4.63;;;2.95;;
71253;SDS011;59019;47.638;18.966;2023-05-07T12:12:06;4.87;;;3.17;;
71253;SDS011;59019;47.638;18.966;2023-05-07T12:14:32;4.70;;;2.90;;
71253;SDS011;59019;47.638;18.966;2023-05-07T12:17:01;5.13;;;2.93;;
71253;SDS011;59019;47.638;18.966;2023-05-07T12:19:28;4.88;;;2.97;;
71253;SDS011;59019;47.638;18.966;2023-05-07T12:21:55;6.97;;;3.00;;
71253;SDS011;59019;47.638;18.966;2023-05-07T12:24:21;4.80;;;2.90;;
71253;SDS011;59019;47.638;18.966;2023-05-07T12:26:47;4.03;;;2.67;;
71253;SDS011;59019;47.638;18.966;2023-05-07T12:29:13;4.88;;;2.95;;
71253;SDS011;59019;47.638;18.966;2023-05-07T12:31:42;5.38;;;3.00;;
71253;SDS011;59019;47.638;18.966;2023-05-07T12:34:10;5.38;;;3.17;;
71253;SDS011;59019;47.638;18.966;2023-05-07T12:36:36;4.80;;;2.80;;
71253;SDS011;59019;47.638;18.966;2023-05-07T12:39:04;4.88;;;2.80;;
71253;SDS011;59019;47.638;18.966;2023-05-07T12:41:30;4.05;;;2.72;;
71253;SDS011;59019;47.638;18.966;2023-05-07T12:44:03;4.40;;;2.83;;
71253;SDS011;59019;47.638;18.966;2023-05-07T12:46:30;5.20;;;2.97;;
71253;SDS011;59019;47.638;18.966;2023-05-07T12:48:56;4.83;;;2.87;;
71253;SDS011;59019;47.638;18.966;2023-05-07T12:51:21;6.30;;;3.22;;
71253;SDS011;59019;47.638;18.966;2023-05-07T12:53:47;5.07;;;3.05;;
71253;SDS011;59019;47.638;18.966;2023-05-07T12:56:15;6.25;;;2.83;;
71253;SDS011;59019;47.638;18.966;2023-05-07T12:58:40;5.45;;;3.05;;
71253;SDS011;59019;47.638;18.966;2023-05-07T13:01:06;4.82;;;3.00;;
71253;SDS011;59019;47.638;18.966;2023-05-07T13:03:34;5.27;;;3.03;;
71253;SDS011;59019;47.638;18.966;2023-05-07T13:06:05;4.57;;;3.10;;
71253;SDS011;59019;47.638;18.966;2023-05-07T13:08:36;5.30;;;3.45;;
71253;SDS011;59019;47.638;18.966;2023-05-07T13:11:03;4.32;;;2.78;;
71253;SDS011;59019;47.638;18.966;2023-05-07T13:13:32;5.53;;;3.30;;
71253;SDS011;59019;47.638;18.966;2023-05-07T13:15:59;5.73;;;3.10;;
71253;SDS011;59019;47.638;18.966;2023-05-07T13:18:25;4.85;;;3.03;;
71253;SDS011;59019;47.638;18.966;2023-05-07T13:20:52;5.10;;;2.90;;
71253;SDS011;59019;47.638;18.966;2023-05-07T13:23:18;5.55;;;3.55;;
71253;SDS011;59019;47.638;18.966;2023-05-07T13:25:44;5.50;;;3.80;;
71253;SDS011;59019;47.638;18.966;2023-05-07T13:28:10;5.40;;;3.15;;
71253;SDS011;59019;47.638;18.966;2023-05-07T13:30:35;5.18;;;3.08;;
71253;SDS011;59019;47.638;18.966;2023-05-07T13:33:01;7.17;;;2.90;;
71253;SDS011;59019;47.638;18.966;2023-05-07T13:35:27;4.82;;;2.88;;
71253;SDS011;59019;47.638;18.966;2023-05-07T13:37:52;4.90;;;3.20;;
71253;SDS011;59019;47.638;18.966;2023-05-07T13:40:19;4.40;;;2.78;;
71253;SDS011;59019;47.638;18.966;2023-05-07T13:42:46;4.57;;;3.15;;
71253;SDS011;59019;47.638;18.966;2023-05-07T13:45:11;5.30;;;2.70;;
71253;SDS011;59019;47.638;18.966;2023-05-07T13:47:42;5.13;;;2.55;;
71253;SDS011;59019;47.638;18.966;2023-05-07T13:50:08;5.47;;;2.78;;
71253;SDS011;59019;47.638;18.966;2023-05-07T13:52:36;4.27;;;2.50;;
71253;SDS011;59019;47.638;18.966;2023-05-07T13:55:02;4.85;;;2.70;;
71253;SDS011;59019;47.638;18.966;2023-05-07T13:57:28;4.30;;;2.33;;
71253;SDS011;59019;47.638;18.966;2023-05-07T13:59:54;5.73;;;3.33;;
71253;SDS011;59019;47.638;18.966;2023-05-07T14:02:19;4.70;;;2.40;;
71253;SDS011;59019;47.638;18.966;2023-05-07T14:04:45;5.87;;;2.80;;
71253;SDS011;59019;47.638;18.966;2023-05-07T14:07:10;5.57;;;2.63;;
71253;SDS011;59019;47.638;18.966;2023-05-07T14:09:36;4.10;;;2.42;;
71253;SDS011;59019;47.638;18.966;2023-05-07T14:12:02;4.07;;;2.27;;
71253;SDS011;59019;47.638;18.966;2023-05-07T14:14:27;4.63;;;2.50;;
71253;SDS011;59019;47.638;18.966;2023-05-07T14:16:53;5.83;;;3.00;;
71253;SDS011;59019;47.638;18.966;2023-05-07T14:19:18;6.17;;;3.00;;
71253;SDS011;59019;47.638;18.966;2023-05-07T14:21:44;5.22;;;3.00;;
71253;SDS011;59019;47.638;18.966;2023-05-07T14:24:10;5.83;;;3.10;;
71253;SDS011;59019;47.638;18.966;2023-05-07T14:26:35;4.30;;;2.90;;
71253;SDS011;59019;47.638;18.966;2023-05-07T14:29:01;7.15;;;3.05;;
71253;SDS011;59019;47.638;18.966;2023-05-07T14:31:27;7.73;;;3.40;;
71253;SDS011;59019;47.638;18.966;2023-05-07T14:33:52;7.95;;;3.00;;
71253;SDS011;59019;47.638;18.966;2023-05-07T14:36:18;5.47;;;3.00;;
71253;SDS011;59019;47.638;18.966;2023-05-07T14:38:48;5.88;;;2.97;;
71253;SDS011;59019;47.638;18.966;2023-05-07T14:41:13;4.40;;;2.65;;
71253;SDS011;59019;47.638;18.966;2023-05-07T14:43:39;5.22;;;3.10;;
71253;SDS011;59019;47.638;18.966;2023-05-07T14:46:05;6.45;;;3.45;;
71253;SDS011;59019;47.638;18.966;2023-05-07T14:48:31;5.83;;;3.40;;
71253;SDS011;59019;47.638;18.966;2023-05-07T14:50:56;6.83;;;3.20;;